sensor_id;sensor_type;location;lat;lon;timestamp;P1;durP1;ratioP1;P2;durP2;ratioP2
10896;SDS011;5501;51.176;6.470;2023-02-22T00:01:49;62.28;;;21.80;;
10896;SDS011;5501;51.176;6.470;2023-02-22T00:07:11;64.30;;;21.98;;
10896;SDS011;5501;51.176;6.470;2023-02-22T00:12:12;69.22;;;23.70;;
10896;SDS011;5501;51.176;6.470;2023-02-22T00:17:14;68.63;;;23.55;;
10896;SDS011;5501;51.176;6.470;2023-02-22T00:22:16;69.65;;;25.48;;
10896;SDS011;5501;51.176;6.470;2023-02-22T00:27:19;73.30;;;23.55;;
10896;SDS011;5501;51.176;6.470;2023-02-22T00:32:23;62.45;;;22.27;;
10896;SDS011;5501;51.176;6.470;2023-02-22T00:37:24;55.78;;;22.58;;
10896;SDS011;5501;51.176;6.470;2023-02-22T00:42:26;63.58;;;21.83;;
10896;SDS011;5501;51.176;6.470;2023-02-22T00:47:27;63.63;;;20.95;;
10896;SDS011;5501;51.176;6.470;2023-02-22T00:52:30;49.00;;;20.48;;
10896;SDS011;5501;51.176;6.470;2023-02-22T00:57:32;58.00;;;20.98;;
10896;SDS011;5501;51.176;6.470;2023-02-22T01:02:35;52.90;;;19.77;;
10896;SDS011;5501;51.176;6.470;2023-02-22T01:07:37;57.60;;;19.30;;
10896;SDS011;5501;51.176;6.470;2023-02-22T01:12:39;47.25;;;17.77;;
10896;SDS011;5501;51.176;6.470;2023-02-22T01:17:41;50.33;;;19.60;;
10896;SDS011;5501;51.176;6.470;2023-02-22T01:22:45;41.38;;;18.45;;
10896;SDS011;5501;51.176;6.470;2023-02-22T01:27:48;47.22;;;17.13;;
10896;SDS011;5501;51.176;6.470;2023-02-22T01:32:52;47.90;;;18.90;;
10896;SDS011;5501;51.176;6.470;2023-02-22T01:37:54;52.90;;;19.60;;
10896;SDS011;5501;51.176;6.470;2023-02-22T01:42:59;52.08;;;19.63;;
10896;SDS011;5501;51.176;6.470;2023-02-22T01:53:34;57.40;;;18.60;;
10896;SDS011;5501;51.176;6.470;2023-02-22T01:58:40;52.78;;;17.95;;
10896;SDS011;5501;51.176;6.470;2023-02-22T02:03:46;53.80;;;18.67;;
10896;SDS011;5501;51.176;6.470;2023-02-22T02:14:25;53.05;;;17.08;;
10896;SDS011;5501;51.176;6.470;2023-02-22T02:25:08;45.35;;;15.68;;
10896;SDS011;5501;51.176;6.470;2023-02-22T02:35:55;40.58;;;16.65;;
10896;SDS011;5501;51.176;6.470;2023-02-22T02:41:09;44.20;;;17.88;;
10896;SDS011;5501;51.176;6.470;2023-02-22T02:51:26;50.60;;;15.05;;
10896;SDS011;5501;51.176;6.470;2023-02-22T02:56:32;43.17;;;15.30;;
10896;SDS011;5501;51.176;6.470;2023-02-22T03:01:49;40.45;;;15.55;;
10896;SDS011;5501;51.176;6.470;2023-02-22T03:12:37;57.92;;;16.30;;
10896;SDS011;5501;51.176;6.470;2023-02-22T03:17:46;42.65;;;16.20;;
10896;SDS011;5501;51.176;6.470;2023-02-22T03:22:56;44.47;;;16.93;;
10896;SDS011;5501;51.176;6.470;2023-02-22T03:28:07;39.25;;;16.10;;
10896;SDS011;5501;51.176;6.470;2023-02-22T03:33:22;45.50;;;16.57;;
10896;SDS011;5501;51.176;6.470;2023-02-22T03:38:35;41.55;;;15.98;;
10896;SDS011;5501;51.176;6.470;2023-02-22T03:43:46;36.70;;;15.02;;
10896;SDS011;5501;51.176;6.470;2023-02-22T03:54:17;44.42;;;14.48;;
10896;SDS011;5501;51.176;6.470;2023-02-22T03:59:20;37.33;;;15.63;;
10896;SDS011;5501;51.176;6.470;2023-02-22T04:04:27;31.40;;;12.93;;
10896;SDS011;5501;51.176;6.470;2023-02-22T04:09:29;34.72;;;13.25;;
10896;SDS011;5501;51.176;6.470;2023-02-22T04:14:31;45.70;;;15.68;;
10896;SDS011;5501;51.176;6.470;2023-02-22T04:19:32;33.90;;;15.00;;
10896;SDS011;5501;51.176;6.470;2023-02-22T04:24:34;41.42;;;15.82;;
10896;SDS011;5501;51.176;6.470;2023-02-22T04:29:35;40.38;;;16.15;;
10896;SDS011;5501;51.176;6.470;2023-02-22T04:34:40;36.00;;;14.90;;
10896;SDS011;5501;51.176;6.470;2023-02-22T04:39:41;36.53;;;15.15;;
10896;SDS011;5501;51.176;6.470;2023-02-22T04:44:43;35.83;;;14.90;;
10896;SDS011;5501;51.176;6.470;2023-02-22T04:49:44;39.97;;;14.50;;
10896;SDS011;5501;51.176;6.470;2023-02-22T04:54:47;37.47;;;16.55;;
10896;SDS011;5501;51.176;6.470;2023-02-22T04:59:49;29.92;;;14.20;;
10896;SDS011;5501;51.176;6.470;2023-02-22T05:04:51;31.60;;;13.88;;
10896;SDS011;5501;51.176;6.470;2023-02-22T05:09:52;52.25;;;15.38;;
10896;SDS011;5501;51.176;6.470;2023-02-22T05:14:54;30.90;;;14.00;;
10896;SDS011;5501;51.176;6.470;2023-02-22T05:19:55;36.40;;;14.93;;
10896;SDS011;5501;51.176;6.470;2023-02-22T05:24:57;29.15;;;14.15;;
10896;SDS011;5501;51.176;6.470;2023-02-22T05:29:58;39.47;;;17.02;;
10896;SDS011;5501;51.176;6.470;2023-02-22T05:35:00;35.42;;;15.20;;
10896;SDS011;5501;51.176;6.470;2023-02-22T05:40:02;38.83;;;16.00;;
10896;SDS011;5501;51.176;6.470;2023-02-22T05:45:03;29.70;;;14.00;;
10896;SDS011;5501;51.176;6.470;2023-02-22T05:50:05;32.58;;;15.40;;
10896;SDS011;5501;51.176;6.470;2023-02-22T05:55:08;42.10;;;14.20;;
10896;SDS011;5501;51.176;6.470;2023-02-22T06:00:15;32.92;;;15.07;;
10896;SDS011;5501;51.176;6.470;2023-02-22T06:05:19;31.25;;;13.93;;
10896;SDS011;5501;51.176;6.470;2023-02-22T06:10:20;35.55;;;15.48;;
10896;SDS011;5501;51.176;6.470;2023-02-22T06:15:23;42.08;;;16.73;;
10896;SDS011;5501;51.176;6.470;2023-02-22T06:20:26;40.65;;;15.55;;
10896;SDS011;5501;51.176;6.470;2023-02-22T06:25:29;36.88;;;15.98;;
10896;SDS011;5501;51.176;6.470;2023-02-22T06:30:34;47.13;;;20.23;;
10896;SDS011;5501;51.176;6.470;2023-02-22T06:35:35;53.15;;;19.67;;
10896;SDS011;5501;51.176;6.470;2023-02-22T06:40:37;45.42;;;19.25;;
10896;SDS011;5501;51.176;6.470;2023-02-22T06:45:39;41.40;;;16.65;;
10896;SDS011;5501;51.176;6.470;2023-02-22T06:50:40;37.92;;;16.90;;
10896;SDS011;5501;51.176;6.470;2023-02-22T06:55:41;41.30;;;16.13;;
10896;SDS011;5501;51.176;6.470;2023-02-22T07:00:43;36.15;;;16.05;;
10896;SDS011;5501;51.176;6.470;2023-02-22T07:05:44;28.83;;;13.85;;
10896;SDS011;5501;51.176;6.470;2023-02-22T07:10:46;29.40;;;14.77;;
10896;SDS011;5501;51.176;6.470;2023-02-22T07:15:50;34.67;;;15.32;;
10896;SDS011;5501;51.176;6.470;2023-02-22T07:20:51;25.13;;;14.02;;
10896;SDS011;5501;51.176;6.470;2023-02-22T07:25:54;36.17;;;14.73;;
10896;SDS011;5501;51.176;6.470;2023-02-22T07:30:56;34.33;;;15.15;;
10896;SDS011;5501;51.176;6.470;2023-02-22T07:35:57;34.38;;;15.10;;
10896;SDS011;5501;51.176;6.470;2023-02-22T07:40:59;34.30;;;16.40;;
10896;SDS011;5501;51.176;6.470;2023-02-22T07:46:02;36.55;;;16.17;;
10896;SDS011;5501;51.176;6.470;2023-02-22T07:51:03;38.97;;;17.17;;
10896;SDS011;5501;51.176;6.470;2023-02-22T07:56:06;36.63;;;17.75;;
10896;SDS011;5501;51.176;6.470;2023-02-22T08:01:09;40.22;;;18.60;;
10896;SDS011;5501;51.176;6.470;2023-02-22T08:06:10;41.10;;;18.23;;
10896;SDS011;5501;51.176;6.470;2023-02-22T08:11:12;46.40;;;17.00;;
10896;SDS011;5501;51.176;6.470;2023-02-22T08:16:13;39.58;;;18.00;;
10896;SDS011;5501;51.176;6.470;2023-02-22T08:21:15;42.72;;;20.33;;
10896;SDS011;5501;51.176;6.470;2023-02-22T08:26:22;49.10;;;20.10;;
10896;SDS011;5501;51.176;6.470;2023-02-22T08:31:25;46.83;;;20.45;;
10896;SDS011;5501;51.176;6.470;2023-02-22T08:36:27;42.65;;;19.13;;
10896;SDS011;5501;51.176;6.470;2023-02-22T08:41:29;42.60;;;18.00;;
10896;SDS011;5501;51.176;6.470;2023-02-22T08:46:31;33.22;;;17.73;;
10896;SDS011;5501;51.176;6.470;2023-02-22T08:51:33;38.50;;;17.55;;
10896;SDS011;5501;51.176;6.470;2023-02-22T08:56:36;43.13;;;17.95;;
10896;SDS011;5501;51.176;6.470;2023-02-22T09:01:37;42.45;;;19.20;;
10896;SDS011;5501;51.176;6.470;2023-02-22T09:06:41;41.38;;;18.20;;
10896;SDS011;5501;51.176;6.470;2023-02-22T09:11:44;41.33;;;18.27;;
10896;SDS011;5501;51.176;6.470;2023-02-22T09:16:45;31.63;;;16.20;;
10896;SDS011;5501;51.176;6.470;2023-02-22T09:21:56;37.20;;;16.05;;
10896;SDS011;5501;51.176;6.470;2023-02-22T09:27:00;37.70;;;15.10;;
10896;SDS011;5501;51.176;6.470;2023-02-22T09:32:04;31.58;;;14.90;;
10896;SDS011;5501;51.176;6.470;2023-02-22T09:37:06;34.47;;;15.07;;
10896;SDS011;5501;51.176;6.470;2023-02-22T09:42:13;32.05;;;15.35;;
10896;SDS011;5501;51.176;6.470;2023-02-22T09:47:23;33.80;;;16.00;;
10896;SDS011;5501;51.176;6.470;2023-02-22T09:52:38;26.48;;;14.10;;
10896;SDS011;5501;51.176;6.470;2023-02-22T09:57:41;31.25;;;15.23;;
10896;SDS011;5501;51.176;6.470;2023-02-22T10:07:59;23.13;;;13.38;;
10896;SDS011;5501;51.176;6.470;2023-02-22T10:29:45;25.85;;;13.63;;
10896;SDS011;5501;51.176;6.470;2023-02-22T10:34:52;22.23;;;11.77;;
10896;SDS011;5501;51.176;6.470;2023-02-22T10:39:57;20.50;;;12.50;;
10896;SDS011;5501;51.176;6.470;2023-02-22T10:45:13;24.67;;;13.05;;
10896;SDS011;5501;51.176;6.470;2023-02-22T10:50:22;21.60;;;12.50;;
10896;SDS011;5501;51.176;6.470;2023-02-22T10:55:24;21.15;;;11.32;;
10896;SDS011;5501;51.176;6.470;2023-02-22T11:10:39;21.73;;;9.77;;
10896;SDS011;5501;51.176;6.470;2023-02-22T11:15:41;23.55;;;10.45;;
10896;SDS011;5501;51.176;6.470;2023-02-22T11:20:44;17.83;;;9.32;;
10896;SDS011;5501;51.176;6.470;2023-02-22T11:25:45;18.73;;;11.32;;
10896;SDS011;5501;51.176;6.470;2023-02-22T11:30:48;16.02;;;8.90;;
10896;SDS011;5501;51.176;6.470;2023-02-22T11:35:53;13.25;;;7.93;;
10896;SDS011;5501;51.176;6.470;2023-02-22T11:41:13;16.02;;;9.30;;
10896;SDS011;5501;51.176;6.470;2023-02-22T11:46:27;18.70;;;9.57;;
10896;SDS011;5501;51.176;6.470;2023-02-22T11:56:46;12.07;;;8.27;;
10896;SDS011;5501;51.176;6.470;2023-02-22T12:01:55;12.93;;;8.05;;
10896;SDS011;5501;51.176;6.470;2023-02-22T12:17:49;14.70;;;7.45;;
10896;SDS011;5501;51.176;6.470;2023-02-22T12:33:39;12.20;;;6.85;;
10896;SDS011;5501;51.176;6.470;2023-02-22T12:38:51;13.77;;;7.78;;
10896;SDS011;5501;51.176;6.470;2023-02-22T12:49:15;9.75;;;4.88;;
10896;SDS011;5501;51.176;6.470;2023-02-22T12:54:28;11.20;;;6.47;;
10896;SDS011;5501;51.176;6.470;2023-02-22T12:59:52;7.28;;;4.53;;
10896;SDS011;5501;51.176;6.470;2023-02-22T13:04:59;7.75;;;5.43;;
10896;SDS011;5501;51.176;6.470;2023-02-22T13:15:31;7.25;;;4.85;;
10896;SDS011;5501;51.176;6.470;2023-02-22T13:25:54;7.13;;;4.72;;
10896;SDS011;5501;51.176;6.470;2023-02-22T13:42:00;8.80;;;5.93;;
10896;SDS011;5501;51.176;6.470;2023-02-22T13:52:08;12.18;;;5.75;;
10896;SDS011;5501;51.176;6.470;2023-02-22T13:57:27;8.02;;;5.75;;
10896;SDS011;5501;51.176;6.470;2023-02-22T14:02:55;14.57;;;5.93;;
10896;SDS011;5501;51.176;6.470;2023-02-22T14:08:01;9.13;;;5.93;;
10896;SDS011;5501;51.176;6.470;2023-02-22T14:13:03;10.15;;;6.53;;
10896;SDS011;5501;51.176;6.470;2023-02-22T14:18:12;8.18;;;6.07;;
10896;SDS011;5501;51.176;6.470;2023-02-22T14:39:17;9.02;;;6.25;;
10896;SDS011;5501;51.176;6.470;2023-02-22T14:44:22;10.48;;;6.05;;
10896;SDS011;5501;51.176;6.470;2023-02-22T14:49:26;8.85;;;6.20;;
10896;SDS011;5501;51.176;6.470;2023-02-22T14:54:36;9.07;;;5.80;;
10896;SDS011;5501;51.176;6.470;2023-02-22T15:00:11;10.57;;;5.90;;
10896;SDS011;5501;51.176;6.470;2023-02-22T15:05:24;14.57;;;6.88;;
10896;SDS011;5501;51.176;6.470;2023-02-22T15:10:37;10.73;;;6.90;;
10896;SDS011;5501;51.176;6.470;2023-02-22T15:15:45;9.93;;;6.57;;
10896;SDS011;5501;51.176;6.470;2023-02-22T15:26:35;8.05;;;5.50;;
10896;SDS011;5501;51.176;6.470;2023-02-22T15:31:55;12.35;;;6.90;;
10896;SDS011;5501;51.176;6.470;2023-02-22T15:37:00;10.35;;;6.63;;
10896;SDS011;5501;51.176;6.470;2023-02-22T15:42:19;11.68;;;6.35;;
10896;SDS011;5501;51.176;6.470;2023-02-22T15:47:22;9.68;;;6.47;;
10896;SDS011;5501;51.176;6.470;2023-02-22T15:52:25;10.70;;;6.40;;
10896;SDS011;5501;51.176;6.470;2023-02-22T15:57:27;11.25;;;7.35;;
10896;SDS011;5501;51.176;6.470;2023-02-22T16:07:41;10.55;;;6.25;;
10896;SDS011;5501;51.176;6.470;2023-02-22T16:12:45;10.55;;;7.13;;
10896;SDS011;5501;51.176;6.470;2023-02-22T16:17:48;14.00;;;7.22;;
10896;SDS011;5501;51.176;6.470;2023-02-22T16:23:20;10.38;;;6.70;;
10896;SDS011;5501;51.176;6.470;2023-02-22T16:28:25;11.35;;;6.88;;
10896;SDS011;5501;51.176;6.470;2023-02-22T16:33:30;12.57;;;7.50;;
10896;SDS011;5501;51.176;6.470;2023-02-22T16:38:34;10.93;;;7.15;;
10896;SDS011;5501;51.176;6.470;2023-02-22T16:43:38;10.75;;;7.20;;
10896;SDS011;5501;51.176;6.470;2023-02-22T16:48:40;12.38;;;7.82;;
10896;SDS011;5501;51.176;6.470;2023-02-22T16:53:43;10.10;;;7.32;;
10896;SDS011;5501;51.176;6.470;2023-02-22T16:58:45;9.85;;;6.55;;
10896;SDS011;5501;51.176;6.470;2023-02-22T17:03:50;12.85;;;8.18;;
10896;SDS011;5501;51.176;6.470;2023-02-22T17:08:53;13.98;;;7.47;;
10896;SDS011;5501;51.176;6.470;2023-02-22T17:13:55;13.75;;;8.38;;
10896;SDS011;5501;51.176;6.470;2023-02-22T17:18:56;13.73;;;8.50;;
10896;SDS011;5501;51.176;6.470;2023-02-22T17:23:58;13.77;;;9.43;;
10896;SDS011;5501;51.176;6.470;2023-02-22T17:28:59;11.95;;;8.10;;
10896;SDS011;5501;51.176;6.470;2023-02-22T17:34:02;13.20;;;8.63;;
10896;SDS011;5501;51.176;6.470;2023-02-22T17:39:05;11.43;;;8.52;;
10896;SDS011;5501;51.176;6.470;2023-02-22T17:44:06;15.13;;;9.95;;
10896;SDS011;5501;51.176;6.470;2023-02-22T17:49:08;12.48;;;8.82;;
10896;SDS011;5501;51.176;6.470;2023-02-22T17:54:10;16.50;;;9.13;;
10896;SDS011;5501;51.176;6.470;2023-02-22T17:59:11;15.98;;;10.35;;
10896;SDS011;5501;51.176;6.470;2023-02-22T18:04:13;12.35;;;9.68;;
10896;SDS011;5501;51.176;6.470;2023-02-22T18:09:15;13.57;;;9.07;;
10896;SDS011;5501;51.176;6.470;2023-02-22T18:14:17;16.55;;;10.35;;
10896;SDS011;5501;51.176;6.470;2023-02-22T18:19:19;13.88;;;10.15;;
10896;SDS011;5501;51.176;6.470;2023-02-22T18:24:26;17.55;;;10.55;;
10896;SDS011;5501;51.176;6.470;2023-02-22T18:29:27;15.50;;;10.38;;
10896;SDS011;5501;51.176;6.470;2023-02-22T18:34:29;17.08;;;10.95;;
10896;SDS011;5501;51.176;6.470;2023-02-22T18:39:31;18.42;;;11.88;;
10896;SDS011;5501;51.176;6.470;2023-02-22T18:44:41;18.55;;;12.52;;
10896;SDS011;5501;51.176;6.470;2023-02-22T18:49:43;21.70;;;12.43;;
10896;SDS011;5501;51.176;6.470;2023-02-22T18:54:44;21.42;;;13.18;;
10896;SDS011;5501;51.176;6.470;2023-02-22T18:59:47;21.08;;;12.75;;
10896;SDS011;5501;51.176;6.470;2023-02-22T19:04:48;21.92;;;13.90;;
10896;SDS011;5501;51.176;6.470;2023-02-22T19:09:50;19.25;;;13.07;;
10896;SDS011;5501;51.176;6.470;2023-02-22T19:14:52;21.67;;;14.13;;
10896;SDS011;5501;51.176;6.470;2023-02-22T19:19:54;17.83;;;12.85;;
10896;SDS011;5501;51.176;6.470;2023-02-22T19:24:56;20.50;;;13.55;;
10896;SDS011;5501;51.176;6.470;2023-02-22T19:29:58;22.50;;;12.90;;
10896;SDS011;5501;51.176;6.470;2023-02-22T19:34:59;18.08;;;12.63;;
10896;SDS011;5501;51.176;6.470;2023-02-22T19:40:06;20.42;;;14.07;;
10896;SDS011;5501;51.176;6.470;2023-02-22T19:45:09;20.40;;;14.00;;
10896;SDS011;5501;51.176;6.470;2023-02-22T19:50:14;20.38;;;13.90;;
10896;SDS011;5501;51.176;6.470;2023-02-22T19:55:18;22.08;;;14.40;;
10896;SDS011;5501;51.176;6.470;2023-02-22T20:00:21;21.85;;;15.05;;
10896;SDS011;5501;51.176;6.470;2023-02-22T20:05:24;22.40;;;14.48;;
10896;SDS011;5501;51.176;6.470;2023-02-22T20:10:26;20.80;;;14.15;;
10896;SDS011;5501;51.176;6.470;2023-02-22T20:15:27;24.73;;;16.08;;
10896;SDS011;5501;51.176;6.470;2023-02-22T20:20:29;24.95;;;15.90;;
10896;SDS011;5501;51.176;6.470;2023-02-22T20:25:32;22.05;;;15.68;;
10896;SDS011;5501;51.176;6.470;2023-02-22T20:30:36;22.75;;;15.73;;
10896;SDS011;5501;51.176;6.470;2023-02-22T20:35:37;23.02;;;16.13;;
10896;SDS011;5501;51.176;6.470;2023-02-22T20:40:42;23.45;;;14.65;;
10896;SDS011;5501;51.176;6.470;2023-02-22T20:45:46;25.70;;;16.75;;
10896;SDS011;5501;51.176;6.470;2023-02-22T20:50:48;25.27;;;15.80;;
10896;SDS011;5501;51.176;6.470;2023-02-22T20:55:49;24.60;;;16.77;;
10896;SDS011;5501;51.176;6.470;2023-02-22T21:00:52;27.13;;;16.15;;
10896;SDS011;5501;51.176;6.470;2023-02-22T21:05:54;25.35;;;16.45;;
10896;SDS011;5501;51.176;6.470;2023-02-22T21:10:55;28.48;;;18.58;;
10896;SDS011;5501;51.176;6.470;2023-02-22T21:15:57;26.27;;;17.45;;
10896;SDS011;5501;51.176;6.470;2023-02-22T21:21:02;25.45;;;16.73;;
10896;SDS011;5501;51.176;6.470;2023-02-22T21:26:14;32.28;;;17.80;;
10896;SDS011;5501;51.176;6.470;2023-02-22T21:31:17;25.67;;;18.30;;
10896;SDS011;5501;51.176;6.470;2023-02-22T21:36:22;25.98;;;17.65;;
10896;SDS011;5501;51.176;6.470;2023-02-22T21:41:27;27.02;;;18.55;;
10896;SDS011;5501;51.176;6.470;2023-02-22T21:46:30;31.88;;;20.60;;
10896;SDS011;5501;51.176;6.470;2023-02-22T21:51:32;26.40;;;19.00;;
10896;SDS011;5501;51.176;6.470;2023-02-22T21:56:35;27.98;;;18.23;;
10896;SDS011;5501;51.176;6.470;2023-02-22T22:01:42;30.08;;;19.88;;
10896;SDS011;5501;51.176;6.470;2023-02-22T22:06:48;31.17;;;19.50;;
10896;SDS011;5501;51.176;6.470;2023-02-22T22:11:55;30.85;;;19.30;;
10896;SDS011;5501;51.176;6.470;2023-02-22T22:16:58;32.47;;;20.02;;
10896;SDS011;5501;51.176;6.470;2023-02-22T22:22:00;31.45;;;20.33;;
10896;SDS011;5501;51.176;6.470;2023-02-22T22:27:02;29.67;;;19.17;;
10896;SDS011;5501;51.176;6.470;2023-02-22T22:32:06;36.85;;;20.42;;
10896;SDS011;5501;51.176;6.470;2023-02-22T22:37:09;31.42;;;21.30;;
10896;SDS011;5501;51.176;6.470;2023-02-22T22:42:10;30.95;;;20.08;;
10896;SDS011;5501;51.176;6.470;2023-02-22T22:47:13;34.30;;;22.13;;
10896;SDS011;5501;51.176;6.470;2023-02-22T22:52:14;33.03;;;20.23;;
10896;SDS011;5501;51.176;6.470;2023-02-22T22:57:16;31.58;;;20.13;;
10896;SDS011;5501;51.176;6.470;2023-02-22T23:02:18;32.90;;;20.30;;
10896;SDS011;5501;51.176;6.470;2023-02-22T23:07:20;31.05;;;20.10;;
10896;SDS011;5501;51.176;6.470;2023-02-22T23:12:21;32.90;;;21.33;;
10896;SDS011;5501;51.176;6.470;2023-02-22T23:17:31;33.25;;;20.00;;
10896;SDS011;5501;51.176;6.470;2023-02-22T23:22:41;31.33;;;21.15;;
10896;SDS011;5501;51.176;6.470;2023-02-22T23:27:47;35.70;;;21.42;;
10896;SDS011;5501;51.176;6.470;2023-02-22T23:32:49;32.85;;;21.38;;
10896;SDS011;5501;51.176;6.470;2023-02-22T23:37:51;37.75;;;21.40;;
10896;SDS011;5501;51.176;6.470;2023-02-22T23:42:58;35.83;;;22.27;;
10896;SDS011;5501;51.176;6.470;2023-02-22T23:48:04;32.17;;;22.33;;
10896;SDS011;5501;51.176;6.470;2023-02-22T23:53:08;30.20;;;20.80;;
10896;SDS011;5501;51.176;6.470;2023-02-22T23:58:15;33.88;;;20.90;;
